Time;durP1;ratioP1;P1;durP2;ratioP2;P2;SDS_P1;SDS_P2;PMS_P1;PMS_P2;Temp;Humidity;BMP_temperature;BMP_pressure;BME280_temperature;BME280_humidity;BME280_pressure;Samples;Min_cycle;Max_cycle;Signal;HPM_P1;HPM_P2
2024/01/01 00:00:12;;;;;;;58.70;40.57;;;9.40;58.60;;;;;;5020538;28;20284;-86
2024/01/01 00:02:38;;;;;;;83.30;69.43;;;9.40;58.60;;;;;;5023539;28;20187;-86
2024/01/01 00:05:03;;;;;;;60.00;43.50;;;9.40;58.70;;;;;;5013852;28;20185;-83
2024/01/01 00:07:29;;;;;;;64.40;43.57;;;9.40;58.60;;;;;;5016994;28;20190;-86
2024/01/01 00:09:55;;;;;;;62.20;42.93;;;9.40;58.60;;;;;;5013702;28;20200;-87
2024/01/01 00:12:20;;;;;;;58.10;42.87;;;9.30;58.50;;;;;;5021769;28;20177;-86
2024/01/01 00:14:46;;;;;;;58.47;43.50;;;9.30;58.60;;;;;;5010479;28;20257;-86
2024/01/01 00:17:13;;;;;;;64.27;44.27;;;9.40;58.60;;;;;;5014120;28;20201;-85
2024/01/01 00:19:39;;;;;;;64.20;45.33;;;9.40;58.60;;;;;;5010867;28;20187;-86
2024/01/01 00:22:05;;;;;;;68.10;46.60;;;9.30;58.60;;;;;;5016982;28;20186;-87
2024/01/01 00:24:30;;;;;;;68.77;46.20;;;9.40;58.60;;;;;;5006814;28;20183;-87
2024/01/01 00:26:56;;;;;;;67.83;48.43;;;9.30;58.50;;;;;;5015428;28;20642;-87
2024/01/01 00:29:21;;;;;;;82.60;53.70;;;9.30;58.40;;;;;;5031713;28;20174;-85
2024/01/01 00:31:47;;;;;;;78.57;55.03;;;9.30;58.60;;;;;;5010033;28;20175;-86
2024/01/01 00:34:12;;;;;;;74.57;53.00;;;9.40;58.70;;;;;;5010598;28;20202;-85
2024/01/01 00:36:38;;;;;;;76.53;52.87;;;9.30;58.60;;;;;;5014488;28;20248;-89
2024/01/01 00:39:04;;;;;;;69.30;50.67;;;9.30;58.50;;;;;;5019855;28;20537;-88
2024/01/01 00:41:30;;;;;;;69.73;51.07;;;9.30;58.60;;;;;;5014272;28;20182;-86
2024/01/01 00:43:56;;;;;;;74.97;48.30;;;9.20;58.40;;;;;;5016900;28;20205;-88
2024/01/01 00:46:22;;;;;;;64.47;47.23;;;9.20;58.50;;;;;;5022202;28;20252;-85
2024/01/01 00:48:47;;;;;;;61.77;45.13;;;9.20;58.60;;;;;;5015264;28;20247;-86
2024/01/01 00:51:13;;;;;;;63.70;44.57;;;9.30;58.60;;;;;;5021530;28;20183;-85
2024/01/01 00:53:39;;;;;;;66.33;44.53;;;9.20;58.50;;;;;;5016003;28;20187;-86
2024/01/01 00:56:06;;;;;;;56.53;42.77;;;9.20;58.30;;;;;;5009806;28;20244;-85
2024/01/01 00:58:31;;;;;;;60.83;43.17;;;9.10;58.50;;;;;;5020104;28;20260;-85
2024/01/01 01:00:57;;;;;;;53.40;40.00;;;9.10;58.60;;;;;;5017247;28;20263;-85
2024/01/01 01:03:22;;;;;;;57.07;40.13;;;9.10;58.50;;;;;;5014630;28;20178;-86
2024/01/01 01:05:48;;;;;;;58.87;40.33;;;9.10;58.70;;;;;;5018954;28;20188;-85
2024/01/01 01:08:14;;;;;;;53.33;38.60;;;9.20;58.70;;;;;;5005419;28;20621;-85
2024/01/01 01:10:39;;;;;;;52.73;38.93;;;9.10;58.70;;;;;;4999974;28;20191;-86
2024/01/01 01:13:05;;;;;;;54.53;41.23;;;9.20;58.70;;;;;;5011224;28;20223;-85
2024/01/01 01:15:32;;;;;;;53.50;39.20;;;9.10;58.60;;;;;;5007832;28;20230;-86
2024/01/01 01:17:58;;;;;;;56.63;40.47;;;9.20;58.60;;;;;;5003688;28;20202;-86
2024/01/01 01:20:24;;;;;;;54.57;37.63;;;9.10;58.30;;;;;;5034709;28;20182;-86
2024/01/01 01:22:49;;;;;;;52.17;40.23;;;9.00;58.20;;;;;;5008786;28;20194;-86
2024/01/01 01:25:15;;;;;;;52.63;38.73;;;8.90;58.30;;;;;;5016193;28;20175;-86
2024/01/01 01:27:41;;;;;;;55.57;37.27;;;8.90;58.60;;;;;;5018442;28;20263;-86
2024/01/01 01:30:07;;;;;;;54.63;37.70;;;8.90;58.90;;;;;;5013846;28;20225;-85
2024/01/01 01:32:32;;;;;;;51.57;37.83;;;8.90;58.90;;;;;;5016316;28;20185;-86
2024/01/01 01:34:58;;;;;;;55.00;37.37;;;8.90;58.80;;;;;;5012035;28;20175;-85
2024/01/01 01:37:24;;;;;;;51.40;38.27;;;8.80;58.60;;;;;;5014499;28;20233;-86
2024/01/01 01:39:49;;;;;;;52.23;38.83;;;8.70;58.70;;;;;;5012076;28;20720;-86
2024/01/01 01:42:15;;;;;;;53.67;38.03;;;8.70;58.80;;;;;;5013560;28;20659;-85
2024/01/01 01:44:40;;;;;;;53.93;37.93;;;8.70;58.80;;;;;;5022444;28;20242;-86
2024/01/01 01:47:11;;;;;;;56.47;39.27;;;8.70;58.90;;;;;;5008285;28;20305;-85
2024/01/01 01:49:36;;;;;;;54.57;37.93;;;8.70;59.00;;;;;;5022951;28;20190;-86
2024/01/01 01:52:03;;;;;;;50.10;36.37;;;8.60;59.00;;;;;;5021584;28;20705;-85
2024/01/01 01:54:33;;;;;;;49.80;35.47;;;8.70;59.00;;;;;;5015992;28;20193;-86
2024/01/01 01:57:01;;;;;;;49.53;35.30;;;8.70;59.00;;;;;;5017663;28;20220;-86
2024/01/01 01:59:26;;;;;;;43.83;34.23;;;8.60;58.80;;;;;;5023552;28;20190;-86
2024/01/01 02:01:52;;;;;;;50.17;35.13;;;8.70;59.00;;;;;;5016520;28;20217;-86
2024/01/01 02:04:18;;;;;;;47.00;34.63;;;8.60;58.80;;;;;;5016738;28;20191;-86
2024/01/01 02:06:47;;;;;;;51.93;35.70;;;8.60;58.60;;;;;;5014833;28;20686;-85
2024/01/01 02:09:12;;;;;;;49.70;33.60;;;8.50;58.70;;;;;;5017295;28;20185;-85
2024/01/01 02:11:38;;;;;;;44.87;33.73;;;8.60;58.90;;;;;;5023277;28;20170;-85
2024/01/01 02:14:12;;;;;;;48.43;34.53;;;8.60;59.00;;;;;;5016721;28;20295;-84
2024/01/01 02:16:41;;;;;;;50.53;35.00;;;8.60;58.80;;;;;;5014827;28;20256;-85
2024/01/01 02:19:26;;;;;;;47.33;34.07;;;8.50;58.60;;;;;;5023384;28;20185;-85
2024/01/01 02:21:52;;;;;;;48.53;35.20;;;8.40;58.60;;;;;;5014721;28;20189;-85
2024/01/01 02:24:19;;;;;;;49.67;34.00;;;8.50;58.60;;;;;;5015373;28;20273;-85
2024/01/01 02:26:45;;;;;;;48.40;32.60;;;8.30;58.80;;;;;;5011843;28;20281;-86
2024/01/01 02:29:11;;;;;;;47.90;33.73;;;8.40;58.80;;;;;;5014436;28;20182;-86
2024/01/01 02:31:37;;;;;;;41.43;31.47;;;8.30;58.80;;;;;;5015085;28;20688;-86
2024/01/01 02:34:03;;;;;;;47.93;33.33;;;8.40;58.80;;;;;;5032417;28;20182;-86
2024/01/01 02:36:35;;;;;;;46.27;32.33;;;8.40;58.80;;;;;;5011574;28;20205;-86
2024/01/01 02:39:01;;;;;;;45.33;32.00;;;8.40;58.70;;;;;;5020886;28;20289;-86
2024/01/01 02:41:27;;;;;;;45.47;32.07;;;8.30;58.60;;;;;;5003945;28;20406;-86
2024/01/01 02:43:52;;;;;;;42.70;30.20;;;8.20;58.60;;;;;;5019901;28;20777;-88
2024/01/01 02:46:18;;;;;;;44.00;31.50;;;8.30;58.70;;;;;;5023603;28;20190;-88
2024/01/01 02:48:44;;;;;;;46.67;33.23;;;8.20;58.60;;;;;;5014157;28;20191;-87
2024/01/01 02:51:11;;;;;;;42.57;31.13;;;8.20;58.60;;;;;;5014294;28;20514;-88
2024/01/01 02:53:37;;;;;;;44.40;32.00;;;8.20;58.60;;;;;;5018222;28;20394;-88
2024/01/01 02:56:05;;;;;;;44.73;31.80;;;8.10;58.70;;;;;;5015526;28;20642;-87
2024/01/01 02:58:30;;;;;;;49.00;32.03;;;8.10;58.70;;;;;;5015130;28;20267;-86
2024/01/01 03:00:56;;;;;;;46.13;32.63;;;8.10;58.70;;;;;;5014047;28;20602;-87
2024/01/01 03:03:21;;;;;;;45.80;32.40;;;8.20;58.90;;;;;;5015019;28;20193;-86
2024/01/01 03:05:47;;;;;;;44.43;32.07;;;8.20;58.70;;;;;;5010885;28;20185;-86
2024/01/01 03:08:13;;;;;;;45.10;32.77;;;8.10;58.50;;;;;;5015420;28;20167;-88
2024/01/01 03:10:38;;;;;;;42.67;31.37;;;8.10;58.50;;;;;;5013142;28;20216;-86
2024/01/01 03:13:04;;;;;;;45.10;32.00;;;8.10;58.60;;;;;;5014152;28;20605;-86
2024/01/01 03:15:29;;;;;;;47.60;32.07;;;8.10;58.70;;;;;;5015972;28;20244;-87
2024/01/01 03:17:55;;;;;;;45.60;32.70;;;8.10;58.70;;;;;;5032441;28;20673;-86
2024/01/01 03:20:22;;;;;;;47.47;33.07;;;8.10;58.70;;;;;;5001895;28;20197;-87
2024/01/01 03:22:48;;;;;;;42.10;30.47;;;8.10;58.70;;;;;;5025787;28;20188;-87
2024/01/01 03:25:14;;;;;;;41.90;30.03;;;8.20;58.90;;;;;;5007184;28;20356;-86
2024/01/01 03:27:40;;;;;;;42.30;31.67;;;8.20;58.90;;;;;;5003189;28;20658;-86
2024/01/01 03:30:06;;;;;;;42.07;31.57;;;8.30;58.80;;;;;;5020560;28;20189;-87
2024/01/01 03:32:35;;;;;;;45.37;31.57;;;8.20;58.70;;;;;;5002994;28;20199;-87
2024/01/01 03:35:02;;;;;;;44.90;31.00;;;8.20;58.80;;;;;;5008539;28;20193;-87
2024/01/01 03:37:28;;;;;;;43.27;32.17;;;8.30;59.50;;;;;;5013899;28;20211;-87
2024/01/01 03:39:54;;;;;;;41.20;29.63;;;8.30;59.10;;;;;;5015687;28;20865;-87
2024/01/01 03:42:20;;;;;;;42.90;30.93;;;8.30;59.20;;;;;;5002729;28;20189;-86
2024/01/01 03:44:45;;;;;;;43.57;32.53;;;8.30;59.10;;;;;;5009854;28;20178;-87
2024/01/01 03:47:11;;;;;;;48.67;33.13;;;8.30;58.90;;;;;;5008206;28;20593;-87
2024/01/01 03:49:37;;;;;;;46.57;33.60;;;8.30;58.90;;;;;;5021022;28;20204;-87
2024/01/01 03:52:02;;;;;;;44.40;32.03;;;8.30;59.10;;;;;;5029101;28;20228;-87
2024/01/01 03:54:28;;;;;;;47.30;33.03;;;8.30;59.10;;;;;;5013048;28;20298;-86
2024/01/01 03:56:55;;;;;;;45.50;34.07;;;8.40;59.30;;;;;;5014336;28;20205;-87
2024/01/01 03:59:21;;;;;;;46.33;33.27;;;8.40;59.20;;;;;;5008645;28;20277;-87
2024/01/01 04:01:46;;;;;;;47.13;34.13;;;8.50;59.40;;;;;;5016442;28;20265;-87
2024/01/01 04:04:12;;;;;;;49.70;34.40;;;8.50;59.30;;;;;;5005532;28;20189;-87
2024/01/01 04:06:38;;;;;;;51.10;34.60;;;8.60;59.30;;;;;;5010367;28;20720;-87
2024/01/01 04:09:03;;;;;;;50.13;35.87;;;8.60;59.20;;;;;;5016106;28;20649;-87
2024/01/01 04:11:29;;;;;;;51.57;34.70;;;8.60;59.00;;;;;;5008010;28;20631;-87
2024/01/01 04:13:55;;;;;;;50.03;34.67;;;8.60;58.90;;;;;;5013364;28;20182;-88
2024/01/01 04:16:20;;;;;;;48.70;34.40;;;8.60;59.10;;;;;;5008684;28;20198;-86
2024/01/01 04:18:46;;;;;;;48.90;35.20;;;8.60;59.30;;;;;;5011609;28;20737;-86
2024/01/01 04:21:11;;;;;;;48.70;36.07;;;8.60;59.20;;;;;;5004811;28;20219;-87
2024/01/01 04:23:37;;;;;;;49.77;36.17;;;8.60;59.70;;;;;;5008717;28;20631;-87
2024/01/01 04:26:03;;;;;;;46.90;35.43;;;8.70;59.20;;;;;;5021461;28;20185;-87
2024/01/01 04:28:29;;;;;;;51.10;36.47;;;8.70;59.80;;;;;;5014093;28;20277;-87
2024/01/01 04:30:54;;;;;;;48.40;36.10;;;8.70;59.10;;;;;;5009142;28;20662;-87
2024/01/01 04:33:20;;;;;;;55.03;37.43;;;8.70;59.20;;;;;;5013211;28;20221;-87
2024/01/01 04:35:46;;;;;;;49.03;34.50;;;8.70;59.30;;;;;;5008970;28;20183;-87
2024/01/01 04:38:12;;;;;;;50.67;35.90;;;8.70;59.20;;;;;;5013436;28;20533;-86
2024/01/01 04:40:38;;;;;;;50.90;36.47;;;8.70;59.20;;;;;;5012113;28;20203;-88
2024/01/01 04:43:04;;;;;;;52.50;37.10;;;8.80;59.20;;;;;;5015098;28;20614;-87
2024/01/01 04:45:33;;;;;;;49.90;36.87;;;8.80;59.20;;;;;;5015343;28;20558;-87
2024/01/01 04:47:59;;;;;;;49.17;36.77;;;8.80;59.00;;;;;;5022010;28;20250;-87
2024/01/01 04:50:25;;;;;;;56.23;37.57;;;8.90;59.00;;;;;;5025863;28;20221;-87
2024/01/01 04:52:50;;;;;;;52.40;38.03;;;8.80;59.00;;;;;;5010421;28;20186;-87
2024/01/01 04:55:16;;;;;;;51.37;37.60;;;8.70;59.00;;;;;;5009717;28;20225;-84
2024/01/01 04:57:41;;;;;;;52.97;35.27;;;8.80;59.40;;;;;;5011699;28;20673;-87
2024/01/01 05:00:08;;;;;;;56.13;36.53;;;8.80;59.40;;;;;;5016585;28;20183;-87
2024/01/01 05:02:33;;;;;;;61.00;39.43;;;8.80;59.30;;;;;;5017565;28;20245;-86
2024/01/01 05:04:59;;;;;;;57.53;40.00;;;8.90;59.20;;;;;;5016203;28;20643;-87
2024/01/01 05:07:25;;;;;;;59.80;40.70;;;8.90;59.30;;;;;;5016078;28;20241;-87
2024/01/01 05:09:51;;;;;;;63.20;41.87;;;8.90;59.10;;;;;;5006246;28;20177;-87
2024/01/01 05:12:16;;;;;;;68.77;40.40;;;8.80;59.00;;;;;;5028381;28;20182;-86
2024/01/01 05:14:42;;;;;;;63.10;40.50;;;8.80;59.20;;;;;;5020358;28;20265;-87
2024/01/01 05:17:08;;;;;;;64.70;41.70;;;8.80;59.40;;;;;;5015225;28;20202;-87
2024/01/01 05:19:33;;;;;;;71.30;42.20;;;8.90;59.60;;;;;;5020286;28;20193;-87
2024/01/01 05:21:59;;;;;;;64.90;40.97;;;8.90;59.60;;;;;;5014061;28;20183;-87
2024/01/01 05:24:24;;;;;;;62.47;41.10;;;9.00;59.60;;;;;;5020029;28;20638;-87
2024/01/01 05:26:50;;;;;;;70.40;42.83;;;8.90;59.50;;;;;;5025378;28;20197;-87
2024/01/01 05:29:16;;;;;;;68.50;42.23;;;8.90;59.50;;;;;;5015638;28;21498;-87
2024/01/01 05:31:41;;;;;;;69.47;41.73;;;8.90;59.40;;;;;;5021159;28;20205;-87
2024/01/01 05:34:07;;;;;;;67.60;41.80;;;9.00;59.60;;;;;;5019261;28;20178;-85
2024/01/01 05:36:32;;;;;;;66.77;41.10;;;9.00;59.40;;;;;;5015684;28;20214;-87
2024/01/01 05:38:58;;;;;;;67.47;42.20;;;8.80;59.50;;;;;;5015435;28;20197;-87
2024/01/01 05:41:24;;;;;;;76.10;41.10;;;8.80;59.50;;;;;;5031931;28;20187;-87
2024/01/01 05:43:50;;;;;;;70.90;42.97;;;8.90;59.70;;;;;;5014632;28;20236;-87
2024/01/01 05:46:15;;;;;;;69.63;42.83;;;8.80;59.80;;;;;;5003938;28;20700;-88
2024/01/01 05:48:41;;;;;;;74.00;43.33;;;8.90;59.80;;;;;;5015991;28;20269;-87
2024/01/01 05:51:07;;;;;;;78.97;43.60;;;9.00;59.60;;;;;;5016760;28;20521;-87
2024/01/01 05:53:33;;;;;;;90.17;44.73;;;9.00;59.50;;;;;;5020930;28;20258;-87
2024/01/01 05:55:59;;;;;;;75.30;43.87;;;9.00;59.50;;;;;;5015502;28;20258;-87
2024/01/01 05:58:24;;;;;;;71.90;41.77;;;8.90;59.40;;;;;;5012160;28;20195;-86
2024/01/01 06:00:50;;;;;;;76.00;43.67;;;8.90;59.40;;;;;;5012645;28;20270;-86
2024/01/01 06:03:15;;;;;;;78.33;44.20;;;8.90;59.30;;;;;;5022712;28;20229;-86
2024/01/01 06:05:41;;;;;;;76.83;43.70;;;8.80;59.20;;;;;;5013217;28;20190;-87
2024/01/01 06:08:06;;;;;;;72.80;42.33;;;8.70;59.40;;;;;;5015173;28;20194;-86
2024/01/01 06:10:32;;;;;;;75.57;43.97;;;8.70;59.50;;;;;;5012594;28;20187;-86
2024/01/01 06:12:58;;;;;;;72.57;42.73;;;8.60;59.60;;;;;;5011775;28;20179;-86
2024/01/01 06:15:26;;;;;;;81.27;44.40;;;8.60;59.80;;;;;;5012324;28;20179;-88
2024/01/01 06:17:52;;;;;;;78.20;43.20;;;8.60;59.90;;;;;;5016216;28;20308;-85
2024/01/01 06:20:18;;;;;;;79.77;44.20;;;8.60;60.10;;;;;;5006982;28;20647;-87
2024/01/01 06:22:46;;;;;;;81.30;45.10;;;8.60;60.40;;;;;;5025623;28;20187;-86
2024/01/01 06:25:11;;;;;;;69.30;42.37;;;8.60;60.20;;;;;;5010264;28;20185;-87
2024/01/01 06:27:37;;;;;;;75.40;43.63;;;8.60;60.10;;;;;;5016978;28;20189;-87
2024/01/01 06:30:04;;;;;;;72.27;42.23;;;8.60;60.40;;;;;;5030996;28;20187;-86
2024/01/01 06:32:30;;;;;;;68.20;41.10;;;8.70;60.60;;;;;;5012408;28;20209;-86
2024/01/01 06:34:55;;;;;;;77.47;43.47;;;8.70;60.40;;;;;;5023242;28;20650;-86
2024/01/01 06:37:21;;;;;;;63.10;41.13;;;8.60;60.20;;;;;;5019793;28;20204;-85
2024/01/01 06:39:46;;;;;;;72.13;43.30;;;8.70;60.40;;;;;;5014711;28;20189;-87
2024/01/01 06:42:12;;;;;;;90.33;45.07;;;8.60;60.40;;;;;;5004753;28;20265;-87
2024/01/01 06:44:38;;;;;;;71.20;41.63;;;8.60;60.40;;;;;;5016144;28;20190;-87
2024/01/01 06:47:04;;;;;;;72.93;42.00;;;8.60;60.40;;;;;;5015480;28;20222;-87
2024/01/01 06:49:29;;;;;;;84.37;43.97;;;8.60;60.60;;;;;;5009506;28;20182;-87
2024/01/01 06:51:55;;;;;;;67.23;41.23;;;8.60;60.90;;;;;;5019820;28;20634;-86
2024/01/01 06:54:20;;;;;;;74.23;42.60;;;8.70;61.20;;;;;;5010879;28;20240;-86
2024/01/01 06:56:46;;;;;;;74.60;42.27;;;8.70;61.10;;;;;;5015137;28;20230;-88
2024/01/01 06:59:13;;;;;;;66.07;41.07;;;8.80;61.00;;;;;;5002446;28;20584;-87
2024/01/01 07:01:41;;;;;;;70.40;43.00;;;8.80;60.80;;;;;;5014182;28;20677;-86
2024/01/01 07:04:07;;;;;;;70.67;40.77;;;8.90;60.60;;;;;;5033157;28;20219;-86
2024/01/01 07:06:33;;;;;;;68.37;42.87;;;8.80;60.40;;;;;;5014630;28;20650;-86
2024/01/01 07:09:00;;;;;;;63.73;42.70;;;8.90;60.60;;;;;;5005371;28;20182;-87
2024/01/01 07:11:25;;;;;;;67.07;41.47;;;8.80;60.80;;;;;;5006364;28;20170;-88
2024/01/01 07:13:51;;;;;;;69.17;42.63;;;8.90;61.00;;;;;;5004956;28;20710;-87
2024/01/01 07:16:17;;;;;;;72.07;42.93;;;9.00;60.70;;;;;;5002825;28;20565;-86
2024/01/01 07:18:42;;;;;;;66.17;40.50;;;8.90;60.50;;;;;;5013824;28;20195;-86
2024/01/01 07:21:08;;;;;;;70.27;42.63;;;8.90;60.70;;;;;;5015751;28;20251;-86
2024/01/01 07:23:34;;;;;;;72.50;41.17;;;9.00;60.80;;;;;;5013987;28;20229;-86
2024/01/01 07:26:00;;;;;;;73.23;41.67;;;9.10;60.60;;;;;;5013804;28;20575;-87
2024/01/01 07:28:26;;;;;;;73.77;43.87;;;9.10;60.30;;;;;;5008724;28;20191;-86
2024/01/01 07:30:52;;;;;;;73.17;42.27;;;9.10;60.20;;;;;;5013893;28;20184;-85
2024/01/01 07:33:17;;;;;;;76.27;43.17;;;9.00;60.40;;;;;;5013371;28;20194;-86
2024/01/01 07:35:43;;;;;;;73.17;43.27;;;9.00;60.40;;;;;;5014414;28;20194;-87
2024/01/01 07:38:09;;;;;;;73.47;42.90;;;9.00;60.40;;;;;;5014757;28;20202;-87
2024/01/01 07:40:35;;;;;;;83.37;43.97;;;9.00;60.20;;;;;;5005903;28;20194;-86
2024/01/01 07:43:00;;;;;;;77.60;42.93;;;9.00;60.40;;;;;;5040815;28;20250;-86
2024/01/01 07:45:26;;;;;;;70.70;44.13;;;9.00;60.40;;;;;;5009792;28;20210;-86
2024/01/01 07:47:52;;;;;;;88.17;42.33;;;9.00;60.40;;;;;;5013742;28;20218;-86
2024/01/01 07:50:18;;;;;;;79.90;44.00;;;9.00;60.40;;;;;;5013517;28;20185;-87
2024/01/01 07:52:43;;;;;;;84.67;43.93;;;9.00;60.60;;;;;;5007259;28;20569;-87
2024/01/01 07:55:11;;;;;;;70.10;43.17;;;9.10;60.60;;;;;;5002902;28;20256;-87
2024/01/01 07:57:36;;;;;;;79.13;40.60;;;9.00;60.40;;;;;;5024930;28;20304;-86
2024/01/01 08:00:04;;;;;;;74.60;43.07;;;8.90;60.50;;;;;;5010563;28;20183;-87
2024/01/01 08:02:30;;;;;;;81.87;44.63;;;8.90;60.80;;;;;;5022261;28;20289;-87
2024/01/01 08:04:56;;;;;;;79.30;43.93;;;8.90;60.80;;;;;;5003795;28;20273;-87
2024/01/01 08:07:22;;;;;;;74.30;43.63;;;9.00;60.90;;;;;;5019226;28;20178;-88
2024/01/01 08:09:47;;;;;;;79.13;44.73;;;9.00;60.90;;;;;;5009127;28;20192;-87
2024/01/01 08:12:13;;;;;;;78.83;44.10;;;9.10;60.80;;;;;;5013740;28;20174;-86
2024/01/01 08:14:40;;;;;;;81.43;43.67;;;8.90;60.70;;;;;;5006002;28;20184;-86
2024/01/01 08:17:08;;;;;;;86.67;43.77;;;9.10;61.20;;;;;;5010583;28;20683;-86
2024/01/01 08:19:33;;;;;;;90.00;46.87;;;9.10;61.30;;;;;;5025425;28;20185;-85
2024/01/01 08:21:59;;;;;;;83.37;43.60;;;9.10;61.20;;;;;;5017415;28;20178;-86
2024/01/01 08:24:24;;;;;;;78.53;44.50;;;9.00;60.90;;;;;;5022718;28;20206;-86
2024/01/01 08:26:50;;;;;;;69.47;41.77;;;9.10;61.10;;;;;;5019361;28;20244;-87
2024/01/01 08:29:16;;;;;;;75.10;42.00;;;9.00;60.90;;;;;;5017584;28;20177;-86
2024/01/01 08:31:41;;;;;;;76.17;43.73;;;9.00;60.90;;;;;;5020726;28;20186;-87
2024/01/01 08:34:07;;;;;;;70.10;41.30;;;9.10;61.00;;;;;;5013121;28;20217;-87
2024/01/01 08:36:32;;;;;;;71.83;41.50;;;9.10;60.90;;;;;;5015177;28;20211;-87
2024/01/01 08:38:58;;;;;;;66.50;41.20;;;9.10;60.80;;;;;;5015989;28;20205;-87
2024/01/01 08:41:23;;;;;;;69.33;39.30;;;9.10;60.80;;;;;;5017069;28;20214;-86
2024/01/01 08:43:56;;;;;;;65.93;40.70;;;9.10;60.80;;;;;;5016598;28;20228;-86
2024/01/01 08:46:23;;;;;;;67.27;38.50;;;9.10;60.70;;;;;;5016442;28;20259;-84
2024/01/01 08:48:49;;;;;;;61.50;39.87;;;9.10;60.80;;;;;;5015113;28;20198;-86
2024/01/01 08:51:15;;;;;;;62.60;38.90;;;9.10;60.70;;;;;;5016425;28;20182;-86
2024/01/01 08:53:40;;;;;;;64.43;39.90;;;9.10;60.70;;;;;;5015514;28;20187;-86
2024/01/01 08:56:06;;;;;;;61.93;39.67;;;9.20;61.00;;;;;;5012676;28;20185;-88
2024/01/01 08:58:32;;;;;;;60.87;38.43;;;9.10;60.90;;;;;;5024259;28;20273;-86
2024/01/01 09:00:58;;;;;;;61.50;39.13;;;9.10;60.60;;;;;;5021061;28;20309;-87
2024/01/01 09:03:23;;;;;;;56.27;38.43;;;9.00;60.40;;;;;;5019706;28;20232;-87
2024/01/01 09:05:49;;;;;;;55.97;35.73;;;9.00;60.70;;;;;;5004718;28;20350;-86
2024/01/01 09:08:15;;;;;;;59.17;37.40;;;9.00;61.20;;;;;;5011855;28;20201;-87
2024/01/01 09:10:41;;;;;;;55.30;36.63;;;9.00;61.30;;;;;;5016332;28;20627;-88
2024/01/01 09:13:07;;;;;;;55.70;36.50;;;9.00;61.10;;;;;;5017703;28;20216;-88
2024/01/01 09:15:33;;;;;;;53.03;36.83;;;9.00;61.10;;;;;;5028821;28;20186;-85
2024/01/01 09:17:58;;;;;;;55.03;37.13;;;9.00;61.20;;;;;;5016951;28;20260;-86
2024/01/01 09:20:24;;;;;;;54.40;37.20;;;9.00;61.40;;;;;;5021168;28;20636;-85
2024/01/01 09:22:51;;;;;;;56.67;37.60;;;9.10;61.60;;;;;;5015104;28;20206;-86
2024/01/01 09:25:18;;;;;;;53.43;36.93;;;9.10;61.40;;;;;;5010024;28;20188;-86
2024/01/01 09:27:44;;;;;;;57.93;37.20;;;9.10;61.20;;;;;;5012303;28;20267;-87
2024/01/01 09:30:10;;;;;;;55.20;38.13;;;9.20;61.30;;;;;;5035874;28;20595;-87
2024/01/01 09:32:36;;;;;;;53.03;36.70;;;9.20;61.30;;;;;;5016774;28;20205;-87
2024/01/01 09:35:02;;;;;;;53.87;36.33;;;9.20;61.10;;;;;;5022309;28;20635;-87
2024/01/01 09:37:27;;;;;;;54.57;35.83;;;9.20;61.30;;;;;;5018253;28;20229;-86
2024/01/01 09:39:53;;;;;;;52.13;35.87;;;9.20;61.30;;;;;;5015812;28;20209;-88
2024/01/01 09:42:18;;;;;;;49.53;33.50;;;9.20;61.10;;;;;;5013570;28;20183;-88
2024/01/01 09:44:49;;;;;;;51.80;34.70;;;9.30;61.20;;;;;;5010468;28;20468;-86
2024/01/01 09:47:16;;;;;;;47.00;33.13;;;9.30;60.90;;;;;;5011859;28;20432;-87
2024/01/01 09:49:42;;;;;;;46.73;34.33;;;9.30;60.90;;;;;;5010093;28;20183;-86
2024/01/01 09:52:14;;;;;;;49.60;34.37;;;9.20;61.00;;;;;;5009914;28;20266;-85
2024/01/01 09:54:41;;;;;;;48.17;34.00;;;9.30;61.20;;;;;;5018760;28;20337;-87
2024/01/01 09:57:08;;;;;;;51.13;35.07;;;9.30;61.30;;;;;;5013195;28;20217;-85
2024/01/01 09:59:39;;;;;;;47.37;33.77;;;9.30;61.30;;;;;;5007630;28;20195;-87
2024/01/01 10:02:09;;;;;;;46.97;34.17;;;9.30;61.20;;;;;;5010339;28;20807;-87
2024/01/01 10:04:34;;;;;;;46.87;34.53;;;9.30;61.00;;;;;;5014779;28;20193;-86
2024/01/01 10:07:02;;;;;;;48.40;32.70;;;9.30;61.90;;;;;;5014722;28;20183;-86
2024/01/01 10:09:29;;;;;;;47.37;35.33;;;9.30;61.20;;;;;;5016105;28;20182;-86
2024/01/01 10:12:13;;;;;;;52.17;35.77;;;9.20;61.30;;;;;;5013458;28;20286;-88
2024/01/01 10:14:49;;;;;;;47.57;34.13;;;9.20;61.40;;;;;;5006099;28;20857;-86
2024/01/01 10:17:17;;;;;;;48.10;34.40;;;9.30;61.70;;;;;;5011383;28;20505;-86
2024/01/01 10:19:59;;;;;;;49.67;34.83;;;9.30;61.70;;;;;;5017353;28;20192;-88
2024/01/01 10:22:30;;;;;;;46.93;35.27;;;9.30;61.60;;;;;;5005874;28;20808;-86
2024/01/01 10:25:17;;;;;;;43.00;31.97;;;9.40;61.60;;;;;;5021044;28;20544;-88
2024/01/01 10:27:45;;;;;;;45.10;32.67;;;9.40;61.50;;;;;;5015023;28;20646;-87
2024/01/01 10:30:12;;;;;;;48.93;32.90;;;9.40;61.60;;;;;;5013136;28;20186;-87
2024/01/01 10:32:40;;;;;;;43.87;31.37;;;9.40;61.80;;;;;;5023932;28;20175;-84
2024/01/01 10:35:09;;;;;;;42.97;30.83;;;9.40;61.50;;;;;;5024395;28;20178;-86
2024/01/01 10:37:37;;;;;;;44.30;30.40;;;9.40;61.50;;;;;;5008854;28;20243;-86
2024/01/01 10:40:05;;;;;;;38.70;28.97;;;9.40;61.50;;;;;;5014523;28;20179;-88
2024/01/01 10:42:35;;;;;;;39.90;28.90;;;9.40;61.60;;;;;;5015872;28;20556;-86
2024/01/01 10:45:05;;;;;;;36.43;28.80;;;9.40;61.90;;;;;;5013487;28;20178;-84
2024/01/01 10:47:32;;;;;;;38.60;28.73;;;9.50;61.80;;;;;;5002564;28;20254;-83
2024/01/01 10:50:30;;;;;;;41.70;31.07;;;9.50;61.60;;;;;;5012710;28;20570;-83
2024/01/01 10:53:31;;;;;;;41.63;29.33;;;9.50;61.50;;;;;;5004125;28;20726;-84
2024/01/01 10:56:13;;;;;;;41.57;30.80;;;9.50;61.70;;;;;;4975056;28;20197;-88
2024/01/01 10:59:04;;;;;;;39.70;29.10;;;9.50;61.60;;;;;;5015521;28;20203;-85
2024/01/01 11:01:31;;;;;;;38.10;29.63;;;9.40;61.50;;;;;;5008186;28;20241;-86
2024/01/01 11:03:57;;;;;;;41.13;30.17;;;9.40;61.60;;;;;;5008872;28;20355;-86
2024/01/01 11:06:27;;;;;;;41.27;30.90;;;9.50;61.70;;;;;;5011652;28;20289;-85
2024/01/01 11:08:54;;;;;;;41.80;31.63;;;9.50;61.80;;;;;;5011235;28;20631;-85
2024/01/01 11:11:32;;;;;;;43.57;33.30;;;9.40;61.60;;;;;;5013841;28;20639;-86
2024/01/01 11:14:00;;;;;;;42.37;32.53;;;9.50;61.80;;;;;;5030178;28;20324;-85
2024/01/01 11:16:26;;;;;;;44.33;34.47;;;9.40;61.60;;;;;;5011255;28;20220;-86
2024/01/01 11:18:53;;;;;;;42.87;33.33;;;9.50;61.60;;;;;;5006729;28;20206;-86
2024/01/01 11:21:32;;;;;;;43.77;34.07;;;9.50;61.80;;;;;;5008396;28;20209;-85
2024/01/01 11:24:02;;;;;;;45.77;34.27;;;9.60;61.90;;;;;;5011388;28;20182;-86
2024/01/01 11:26:34;;;;;;;43.00;33.27;;;9.50;61.70;;;;;;5008749;28;20191;-85
2024/01/01 11:29:25;;;;;;;48.60;35.80;;;9.50;61.70;;;;;;5010218;28;20245;-87
2024/01/01 11:32:01;;;;;;;55.47;40.13;;;9.40;61.50;;;;;;5020548;28;20190;-87
2024/01/01 11:34:27;;;;;;;53.80;39.03;;;9.50;61.80;;;;;;5007906;28;20196;-86
2024/01/01 11:36:53;;;;;;;50.77;37.40;;;9.50;61.80;;;;;;5013126;28;20205;-86
2024/01/01 11:39:24;;;;;;;50.57;38.60;;;9.40;61.70;;;;;;5008662;28;20224;-86
2024/01/01 11:41:50;;;;;;;46.10;35.57;;;9.40;61.90;;;;;;5000061;28;20182;-88
2024/01/01 11:44:18;;;;;;;46.13;36.30;;;9.40;61.80;;;;;;5011065;28;20185;-89
2024/01/01 11:46:46;;;;;;;43.77;33.70;;;9.40;62.00;;;;;;5010092;28;20231;-88
2024/01/01 11:49:12;;;;;;;44.63;34.03;;;9.40;62.00;;;;;;5012175;28;20178;-85
2024/01/01 11:51:52;;;;;;;45.43;33.70;;;9.40;61.80;;;;;;5008625;28;21133;-87
2024/01/01 11:54:18;;;;;;;40.47;32.33;;;9.40;61.80;;;;;;5007415;28;20206;-87
2024/01/01 11:56:46;;;;;;;43.93;34.27;;;9.40;61.70;;;;;;5006931;28;20202;-87
2024/01/01 11:59:12;;;;;;;42.63;33.67;;;9.40;61.90;;;;;;5020148;28;20225;-88
2024/01/01 12:01:41;;;;;;;42.47;33.80;;;9.40;62.00;;;;;;5012587;28;20190;-86
2024/01/01 12:04:07;;;;;;;42.10;32.10;;;9.40;62.10;;;;;;5004892;28;20221;-86
2024/01/01 12:06:34;;;;;;;48.83;37.33;;;9.40;62.00;;;;;;5002834;28;20198;-86
2024/01/01 12:09:11;;;;;;;46.53;37.47;;;9.40;62.10;;;;;;5017327;28;20584;-86
2024/01/01 12:11:39;;;;;;;48.47;38.60;;;9.30;61.90;;;;;;5010345;28;20178;-86
2024/01/01 12:14:05;;;;;;;48.83;39.73;;;9.30;61.80;;;;;;5026117;28;20201;-86
2024/01/01 12:16:31;;;;;;;51.00;39.57;;;9.30;62.00;;;;;;4999948;28;20213;-86
2024/01/01 12:18:58;;;;;;;51.10;39.57;;;9.30;62.20;;;;;;5006356;28;20187;-86
2024/01/01 12:21:25;;;;;;;49.27;38.33;;;9.30;62.10;;;;;;5003496;28;20179;-86
2024/01/01 12:24:02;;;;;;;44.00;34.20;;;9.30;62.20;;;;;;5014000;28;20187;-87
2024/01/01 12:26:27;;;;;;;42.07;33.33;;;9.20;62.10;;;;;;5012616;28;20749;-86
2024/01/01 12:29:12;;;;;;;42.17;33.07;;;9.20;62.30;;;;;;5001835;28;20198;-87
2024/01/01 12:31:39;;;;;;;43.37;34.10;;;9.30;62.50;;;;;;5021023;28;20186;-86
2024/01/01 12:34:07;;;;;;;42.47;33.93;;;9.30;62.50;;;;;;5028823;28;20217;-87